Time;durP1;ratioP1;P1;durP2;ratioP2;P2;SDS_P1;SDS_P2;PMS_P1;PMS_P2;Temp;Humidity;BMP_temperature;BMP_pressure;BME280_temperature;BME280_humidity;BME280_pressure;Samples;Min_cycle;Max_cycle;Signal;HPM_P1;HPM_P2
2021/07/22 00:01:38;;;;;;;10.00;9.00;;;;;;;20.98;61.67;96046.88;5036814;28;20225;-86
2021/07/22 00:04:05;;;;;;;12.52;9.38;;;;;;;20.91;61.96;96047.00;5037657;28;20198;-86
2021/07/22 00:06:31;;;;;;;10.45;9.38;;;;;;;20.94;61.75;96043.94;5037421;28;20210;-86
2021/07/22 00:09:04;;;;;;;10.93;9.35;;;;;;;20.97;61.57;96043.47;5038333;28;20202;-86
2021/07/22 00:11:34;;;;;;;12.45;9.20;;;;;;;20.96;62.33;96041.91;5037332;28;20197;-86
2021/07/22 00:14:02;;;;;;;10.30;9.30;;;;;;;20.90;62.28;96037.56;5036322;28;20367;-86
2021/07/22 00:16:30;;;;;;;10.40;9.50;;;;;;;20.87;62.79;96037.22;5037337;28;20741;-86
2021/07/22 00:18:57;;;;;;;11.68;9.68;;;;;;;20.79;63.15;96042.78;5037852;28;20206;-86
2021/07/22 00:21:24;;;;;;;10.88;9.88;;;;;;;20.81;62.55;96046.78;5038164;28;20398;-85
2021/07/22 00:23:50;;;;;;;10.35;9.30;;;;;;;20.87;62.25;96034.59;5038362;28;20221;-85
2021/07/22 00:26:18;;;;;;;10.57;9.48;;;;;;;20.90;62.03;96040.19;5039952;28;20213;-84
2021/07/22 00:28:54;;;;;;;12.10;9.65;;;;;;;20.93;62.02;96036.31;5040720;28;20281;-85
2021/07/22 00:31:21;;;;;;;10.35;9.35;;;;;;;20.83;63.21;96034.25;5039880;28;20194;-87
2021/07/22 00:33:47;;;;;;;10.73;9.73;;;;;;;20.84;62.40;96046.31;5039917;28;20779;-86
2021/07/22 00:36:14;;;;;;;11.52;9.02;;;;;;;20.82;62.93;96032.66;5040060;28;20198;-85
2021/07/22 00:38:40;;;;;;;10.27;9.27;;;;;;;20.76;63.37;96033.59;5040464;28;20228;-85
2021/07/22 00:41:10;;;;;;;9.95;9.05;;;;;;;20.81;62.82;96028.47;5040523;28;20309;-82
2021/07/22 00:43:42;;;;;;;17.38;9.48;;;;;;;20.83;62.99;96029.03;5040433;28;20229;-85
2021/07/22 00:46:08;;;;;;;10.48;9.50;;;;;;;20.78;63.37;96028.16;5041835;28;20270;-83
2021/07/22 00:48:35;;;;;;;10.73;9.60;;;;;;;20.79;63.01;96037.56;5037905;28;20298;-86
2021/07/22 00:51:03;;;;;;;10.88;9.30;;;;;;;20.55;63.99;96039.41;5038319;28;20195;-86
2021/07/22 00:53:30;;;;;;;10.25;9.25;;;;;;;20.53;63.91;96038.84;5038034;28;20239;-86
2021/07/22 00:55:57;;;;;;;10.75;9.65;;;;;;;20.49;63.99;96030.66;5038283;28;20214;-86
2021/07/22 00:58:26;;;;;;;10.30;9.40;;;;;;;20.51;63.68;96025.97;5037712;28;20198;-87
2021/07/22 01:00:54;;;;;;;10.02;9.13;;;;;;;20.45;64.32;96032.13;5037426;28;20313;-86
2021/07/22 01:03:21;;;;;;;10.65;9.60;;;;;;;20.48;64.05;96030.88;5037445;28;20708;-86
2021/07/22 01:05:47;;;;;;;10.27;9.25;;;;;;;20.55;63.74;96029.75;5038047;28;20202;-87
2021/07/22 01:08:14;;;;;;;10.88;9.77;;;;;;;20.56;63.84;96033.16;5038006;28;20268;-86
2021/07/22 01:10:41;;;;;;;10.30;9.23;;;;;;;20.60;63.68;96026.44;5037430;28;20194;-86
2021/07/22 01:13:07;;;;;;;11.20;9.90;;;;;;;20.69;63.34;96022.44;5037369;28;20232;-87
2021/07/22 01:15:34;;;;;;;10.23;9.27;;;;;;;20.53;63.13;96025.75;5036905;28;20213;-86
2021/07/22 01:18:02;;;;;;;11.05;8.98;;;;;;;20.34;63.87;96023.22;5037134;28;20285;-86
2021/07/22 01:20:30;;;;;;;10.00;9.10;;;;;;;20.22;64.64;96025.00;5037501;28;20577;-86
2021/07/22 01:22:59;;;;;;;10.07;8.93;;;;;;;20.26;64.42;96031.38;5037332;28;20221;-86
2021/07/22 01:25:26;;;;;;;9.48;8.68;;;;;;;20.27;64.60;96029.56;5036530;28;20300;-86
2021/07/22 01:27:53;;;;;;;10.43;9.25;;;;;;;20.25;64.16;96023.78;5037296;28;20346;-86
2021/07/22 01:30:20;;;;;;;10.88;9.80;;;;;;;20.16;65.02;96020.72;5037333;28;20775;-86
2021/07/22 01:32:47;;;;;;;9.63;8.27;;;;;;;20.18;64.78;96016.06;5037029;28;20368;-87
2021/07/22 01:35:14;;;;;;;10.13;8.98;;;;;;;20.27;64.48;96016.50;5036632;28;20190;-86
2021/07/22 01:37:47;;;;;;;10.23;9.23;;;;;;;20.25;64.48;96014.09;5037892;28;20582;-86
2021/07/22 01:40:14;;;;;;;10.70;8.95;;;;;;;20.24;64.22;96014.31;5037336;28;20194;-86
2021/07/22 01:42:41;;;;;;;10.48;8.98;;;;;;;20.28;64.37;96018.09;5037064;28;20651;-86
2021/07/22 01:45:09;;;;;;;9.93;9.02;;;;;;;20.22;64.37;96021.59;5037062;28;20230;-86
2021/07/22 01:47:36;;;;;;;11.20;9.40;;;;;;;20.00;65.17;96029.22;5037691;28;20202;-86
2021/07/22 01:50:04;;;;;;;10.05;9.07;;;;;;;19.82;65.92;96030.06;5037912;28;20194;-86
2021/07/22 01:52:30;;;;;;;10.15;9.15;;;;;;;19.64;66.72;96030.91;5037677;28;20309;-86
2021/07/22 01:55:00;;;;;;;9.90;9.00;;;;;;;19.53;67.68;96023.84;5036866;28;20209;-86
2021/07/22 01:57:27;;;;;;;11.98;9.65;;;;;;;19.54;67.45;96022.81;5037676;28;20289;-87
2021/07/22 01:59:54;;;;;;;11.10;10.00;;;;;;;19.58;67.03;96023.19;5037596;28;20201;-86
2021/07/22 02:02:20;;;;;;;10.23;9.10;;;;;;;19.63;66.72;96018.06;5037115;28;20295;-86
2021/07/22 02:04:46;;;;;;;10.20;9.20;;;;;;;19.67;66.78;96024.44;5038277;28;20201;-86
2021/07/22 02:07:15;;;;;;;11.00;9.13;;;;;;;19.75;66.77;96015.50;5037447;28;20202;-86
2021/07/22 02:09:42;;;;;;;10.60;9.60;;;;;;;19.74;66.83;96019.94;5037107;28;20197;-87
2021/07/22 02:12:11;;;;;;;11.57;9.90;;;;;;;19.75;66.71;96015.50;5037306;28;20317;-86
2021/07/22 02:14:39;;;;;;;10.70;9.60;;;;;;;19.75;67.13;96018.91;5037138;28;20202;-86
2021/07/22 02:17:05;;;;;;;9.93;9.02;;;;;;;19.76;66.77;96019.72;5036554;28;20581;-87
2021/07/22 02:19:32;;;;;;;10.45;9.45;;;;;;;19.77;66.92;96018.69;5036754;28;20202;-85
2021/07/22 02:22:00;;;;;;;10.57;9.35;;;;;;;19.74;67.47;96021.75;5036479;28;20225;-83
2021/07/22 02:24:26;;;;;;;10.65;9.60;;;;;;;19.52;68.25;96016.22;5037063;28;20245;-85
2021/07/22 02:26:56;;;;;;;12.13;9.55;;;;;;;19.46;68.24;96011.84;5037353;28;20206;-86
2021/07/22 02:29:24;;;;;;;10.43;9.32;;;;;;;19.43;68.47;96015.72;5037264;28;20205;-86
2021/07/22 02:31:50;;;;;;;10.20;9.25;;;;;;;19.44;68.06;96014.66;5036470;28;20768;-86
2021/07/22 02:34:17;;;;;;;11.55;9.35;;;;;;;19.43;68.07;96013.09;5037633;28;20194;-86
2021/07/22 02:36:46;;;;;;;10.65;9.63;;;;;;;19.53;67.75;96017.81;5037210;28;20202;-85
2021/07/22 02:39:13;;;;;;;12.07;10.27;;;;;;;19.54;67.96;96028.03;5040912;28;20233;-86
2021/07/22 02:41:39;;;;;;;13.23;9.77;;;;;;;19.57;67.60;96026.81;5040857;28;20268;-86
2021/07/22 02:44:06;;;;;;;10.25;9.30;;;;;;;19.62;67.37;96019.91;5041353;28;20194;-86
2021/07/22 02:46:35;;;;;;;11.02;9.13;;;;;;;19.58;67.14;96018.75;5041198;28;20296;-85
2021/07/22 02:49:04;;;;;;;12.57;11.27;;;;;;;19.56;67.30;96017.38;5040947;28;20194;-86
2021/07/22 02:51:31;;;;;;;10.05;9.00;;;;;;;19.56;66.76;96026.00;5040528;28;20194;-86
2021/07/22 02:53:57;;;;;;;10.65;9.63;;;;;;;19.61;66.99;96022.75;5041020;28;20248;-86
2021/07/22 02:56:25;;;;;;;10.13;9.10;;;;;;;19.69;66.43;96029.44;5041154;28;20610;-86
2021/07/22 02:58:52;;;;;;;10.43;9.32;;;;;;;19.65;66.57;96029.88;5041410;28;20205;-86
2021/07/22 03:01:19;;;;;;;10.00;9.00;;;;;;;19.60;66.94;96026.38;5040455;28;20212;-87
2021/07/22 03:03:49;;;;;;;10.70;9.60;;;;;;;19.61;66.31;96028.75;5040125;28;20649;-86
2021/07/22 03:06:16;;;;;;;10.25;9.25;;;;;;;19.61;66.49;96030.56;5040588;28;20675;-86
2021/07/22 03:08:43;;;;;;;10.38;9.48;;;;;;;19.52;66.96;96034.50;5040693;28;20259;-86
2021/07/22 03:11:10;;;;;;;54.13;42.05;;;;;;;19.32;68.16;96030.31;5040148;28;20205;-86
2021/07/22 03:13:36;;;;;;;53.42;39.72;;;;;;;19.26;68.84;96025.94;5040263;28;20645;-86
2021/07/22 03:16:03;;;;;;;14.68;13.18;;;;;;;19.25;68.27;96026.97;5040353;28;20194;-86
2021/07/22 03:18:30;;;;;;;20.35;16.55;;;;;;;19.25;69.24;96034.78;5039712;28;20669;-86
2021/07/22 03:21:00;;;;;;;11.98;10.75;;;;;;;19.28;68.30;96036.97;5040149;28;20248;-86
2021/07/22 03:23:26;;;;;;;10.73;9.73;;;;;;;19.23;68.85;96029.03;5039689;28;20225;-86
2021/07/22 03:25:53;;;;;;;14.77;9.55;;;;;;;19.17;68.93;96032.50;5040527;28;20210;-86
2021/07/22 03:28:20;;;;;;;11.30;10.20;;;;;;;19.25;68.47;96034.78;5040227;28;20221;-85
2021/07/22 03:30:46;;;;;;;10.93;9.38;;;;;;;19.32;67.94;96027.69;5040025;28;20213;-86
2021/07/22 03:33:13;;;;;;;10.93;9.82;;;;;;;19.30;68.73;96036.75;5040402;28;20225;-86
2021/07/22 03:35:41;;;;;;;14.38;12.70;;;;;;;19.23;68.91;96031.63;5039699;28;20266;-86
2021/07/22 03:38:09;;;;;;;11.13;9.95;;;;;;;19.18;68.92;96028.88;5040316;28;20206;-87
2021/07/22 03:40:38;;;;;;;13.73;11.00;;;;;;;19.20;68.81;96028.66;5040262;28;20190;-85
2021/07/22 03:43:06;;;;;;;11.80;9.35;;;;;;;19.25;68.53;96037.41;5039385;28;20230;-86
2021/07/22 03:45:32;;;;;;;17.15;12.93;;;;;;;19.29;68.50;96041.19;5038879;28;20203;-85
2021/07/22 03:48:00;;;;;;;11.32;10.13;;;;;;;19.27;68.47;96030.16;5039511;28;20297;-85
2021/07/22 03:50:27;;;;;;;13.70;9.77;;;;;;;19.22;69.04;96032.66;5039745;28;20194;-85
2021/07/22 03:52:55;;;;;;;10.80;9.70;;;;;;;19.30;68.63;96045.38;5039053;28;20985;-87
2021/07/22 03:55:24;;;;;;;12.02;10.27;;;;;;;19.37;68.43;96040.09;5039642;28;20198;-85
2021/07/22 03:57:51;;;;;;;12.00;9.80;;;;;;;19.36;68.51;96040.31;5039092;28;20190;-86
2021/07/22 04:00:18;;;;;;;10.60;9.55;;;;;;;19.31;68.87;96031.31;5038791;28;20674;-87
2021/07/22 04:02:50;;;;;;;11.95;9.95;;;;;;;19.35;69.16;96036.91;5038769;28;20257;-84
2021/07/22 04:05:16;;;;;;;11.32;10.23;;;;;;;19.37;69.25;96040.09;5039451;28;20678;-84
2021/07/22 04:07:43;;;;;;;13.40;10.27;;;;;;;19.40;68.77;96033.63;5039786;28;20194;-84
2021/07/22 04:10:10;;;;;;;11.63;9.55;;;;;;;19.38;68.73;96038.28;5040022;28;20198;-85
2021/07/22 04:12:38;;;;;;;9.90;9.00;;;;;;;19.42;68.21;96045.47;5038997;28;20233;-86
2021/07/22 04:15:06;;;;;;;11.10;9.57;;;;;;;19.40;68.82;96044.06;5039557;28;20206;-85
2021/07/22 04:17:33;;;;;;;10.70;9.60;;;;;;;19.51;68.02;96044.16;5039316;28;20202;-85
2021/07/22 04:19:59;;;;;;;10.25;9.25;;;;;;;19.53;68.36;96049.97;5038787;28;20221;-84
2021/07/22 04:22:31;;;;;;;10.63;9.68;;;;;;;19.51;68.54;96051.19;5039026;28;20253;-86
2021/07/22 04:24:58;;;;;;;11.63;9.77;;;;;;;19.49;68.65;96061.03;5039967;28;20214;-85
2021/07/22 04:27:27;;;;;;;10.55;9.23;;;;;;;19.52;68.32;96047.56;5039444;28;20200;-85
2021/07/22 04:29:57;;;;;;;10.30;9.20;;;;;;;19.59;68.53;96051.69;5039555;28;20261;-84
2021/07/22 04:32:24;;;;;;;14.30;10.10;;;;;;;19.66;68.24;96048.97;5039592;28;20222;-86
2021/07/22 04:34:50;;;;;;;11.27;9.77;;;;;;;19.69;68.70;96050.34;5039239;28;20229;-86
2021/07/22 04:37:17;;;;;;;10.18;9.18;;;;;;;19.79;68.25;96053.25;5038225;28;20226;-86
2021/07/22 04:39:43;;;;;;;12.63;9.70;;;;;;;19.78;68.56;96052.44;5038971;28;20210;-87
2021/07/22 04:42:10;;;;;;;10.30;9.30;;;;;;;19.83;68.15;96049.13;5037745;28;20222;-87
2021/07/22 04:44:36;;;;;;;10.75;9.70;;;;;;;19.89;67.77;96050.88;5038775;28;20612;-86
2021/07/22 04:47:05;;;;;;;10.77;9.70;;;;;;;19.95;67.54;96053.41;5038951;28;20210;-86
2021/07/22 04:49:35;;;;;;;11.00;9.88;;;;;;;19.92;68.18;96050.44;5038241;28;20212;-86
2021/07/22 04:52:01;;;;;;;10.88;9.77;;;;;;;19.96;67.74;96047.16;5037591;28;20224;-86
2021/07/22 04:54:28;;;;;;;11.52;10.43;;;;;;;20.04;67.29;96046.03;5038073;28;20283;-86
2021/07/22 04:56:55;;;;;;;10.52;9.32;;;;;;;20.13;67.04;96046.50;5037802;28;20191;-86
2021/07/22 04:59:21;;;;;;;11.88;10.68;;;;;;;20.14;66.45;96037.63;5037767;28;20208;-86
2021/07/22 05:01:48;;;;;;;11.18;10.07;;;;;;;20.27;66.30;96042.66;5037489;28;20209;-86
2021/07/22 05:04:18;;;;;;;13.60;10.27;;;;;;;20.39;66.08;96040.09;5038698;28;20210;-86
2021/07/22 05:06:44;;;;;;;12.88;11.57;;;;;;;20.47;65.71;96039.75;5037839;28;20198;-86
2021/07/22 05:09:11;;;;;;;20.00;16.08;;;;;;;20.51;65.32;96039.06;5037792;28;20198;-86
2021/07/22 05:11:38;;;;;;;14.40;12.05;;;;;;;20.62;65.03;96043.50;5037333;28;20212;-87
2021/07/22 05:14:04;;;;;;;12.77;10.57;;;;;;;20.67;64.78;96040.19;5037838;28;20218;-86
2021/07/22 05:16:31;;;;;;;11.95;10.50;;;;;;;20.73;65.11;96047.16;5037024;28;20281;-87
2021/07/22 05:18:58;;;;;;;11.82;10.73;;;;;;;20.82;64.60;96043.13;5037032;28;20201;-86
2021/07/22 05:21:26;;;;;;;13.07;11.48;;;;;;;20.80;64.60;96053.03;5036819;28;20208;-86
2021/07/22 05:23:53;;;;;;;12.05;10.50;;;;;;;20.85;64.60;96047.13;5036484;28;20256;-87
2021/07/22 05:26:19;;;;;;;11.65;10.45;;;;;;;20.86;64.73;96044.28;5036779;28;20285;-86
2021/07/22 05:28:46;;;;;;;13.15;10.82;;;;;;;20.91;64.47;96043.59;5036394;28;20206;-86
2021/07/22 05:31:13;;;;;;;11.93;10.68;;;;;;;20.97;64.30;96047.94;5036568;28;20194;-86
2021/07/22 05:33:41;;;;;;;12.50;11.30;;;;;;;21.00;63.96;96042.19;5036194;28;20225;-86
2021/07/22 05:36:09;;;;;;;12.38;10.00;;;;;;;21.12;64.18;96044.81;5036241;28;20202;-86
2021/07/22 05:38:38;;;;;;;12.95;11.68;;;;;;;21.07;64.23;96036.84;5035573;28;20202;-86
2021/07/22 05:41:09;;;;;;;12.50;11.02;;;;;;;21.11;64.65;96044.03;5036449;28;20229;-85
2021/07/22 05:43:35;;;;;;;11.63;10.13;;;;;;;21.23;63.77;96044.00;5036705;28;20230;-86
2021/07/22 05:46:02;;;;;;;12.25;11.05;;;;;;;21.30;63.59;96049.94;5036653;28;20209;-86
2021/07/22 05:48:28;;;;;;;11.73;10.63;;;;;;;21.32;63.58;96042.63;5036382;28;20206;-86
2021/07/22 05:50:55;;;;;;;16.42;11.60;;;;;;;21.30;62.98;96045.47;5036492;28;20213;-85
2021/07/22 05:53:21;;;;;;;12.27;11.10;;;;;;;21.31;63.49;96047.06;5036215;28;20221;-85
2021/07/22 05:55:49;;;;;;;12.57;11.32;;;;;;;21.28;63.22;96042.31;5035553;28;20721;-87
2021/07/22 05:58:16;;;;;;;13.43;11.50;;;;;;;21.37;63.96;96051.38;5034639;28;20292;-87
2021/07/22 06:00:42;;;;;;;13.98;10.70;;;;;;;21.39;63.60;96043.28;5034853;28;20206;-86
2021/07/22 06:03:09;;;;;;;13.75;11.43;;;;;;;21.43;63.66;96044.41;5034655;28;20229;-86
2021/07/22 06:05:38;;;;;;;13.13;11.82;;;;;;;21.37;64.37;96047.94;5035233;28;20198;-86
2021/07/22 06:08:05;;;;;;;11.52;10.32;;;;;;;21.40;65.01;96042.25;5035032;28;20260;-86
2021/07/22 06:10:34;;;;;;;11.55;10.45;;;;;;;21.50;64.02;96041.66;5034971;28;20213;-86
2021/07/22 06:13:16;;;;;;;13.18;11.55;;;;;;;21.62;63.69;96037.97;5033127;28;20226;-86
2021/07/22 06:15:43;;;;;;;15.00;10.60;;;;;;;21.77;63.13;96037.44;5034365;28;20202;-86
2021/07/22 06:18:09;;;;;;;11.48;10.35;;;;;;;21.73;62.83;96043.41;5034181;28;20574;-86
2021/07/22 06:20:39;;;;;;;12.80;11.43;;;;;;;21.74;62.91;96045.78;5035370;28;20202;-86
2021/07/22 06:23:08;;;;;;;13.02;11.60;;;;;;;21.78;63.71;96046.88;5034031;28;20226;-86
2021/07/22 06:25:38;;;;;;;13.15;11.23;;;;;;;21.86;63.45;96051.75;5034256;28;20228;-86
2021/07/22 06:28:06;;;;;;;15.15;11.30;;;;;;;21.90;63.70;96052.88;5033886;28;20205;-86
2021/07/22 06:30:36;;;;;;;15.25;11.75;;;;;;;22.00;62.17;96049.66;5033921;28;20620;-86
2021/07/22 06:33:05;;;;;;;13.25;11.88;;;;;;;22.09;62.79;96050.09;5033994;28;20222;-86
2021/07/22 06:35:31;;;;;;;11.80;10.55;;;;;;;22.23;61.74;96051.34;5033791;28;20193;-86
2021/07/22 06:37:58;;;;;;;12.25;10.18;;;;;;;22.38;61.24;96048.97;5034631;28;20252;-86
2021/07/22 06:40:25;;;;;;;13.13;11.30;;;;;;;22.42;60.55;96044.03;5034214;28;20225;-85
2021/07/22 06:42:51;;;;;;;12.45;11.25;;;;;;;22.49;60.25;96045.47;5033104;28;20222;-86
2021/07/22 06:45:19;;;;;;;13.10;11.70;;;;;;;22.46;61.57;96050.41;5033357;28;20242;-86
2021/07/22 06:47:46;;;;;;;12.88;10.75;;;;;;;22.54;61.51;96049.97;5034159;28;20600;-86
2021/07/22 06:50:13;;;;;;;12.80;11.38;;;;;;;22.57;61.38;96041.63;5034190;28;20201;-86
2021/07/22 06:52:39;;;;;;;13.63;12.25;;;;;;;22.56;61.46;96047.91;5034144;28;20229;-86
2021/07/22 06:55:07;;;;;;;12.50;10.88;;;;;;;22.60;61.29;96044.59;5033876;28;20210;-86
2021/07/22 06:57:35;;;;;;;13.63;11.13;;;;;;;22.64;61.22;96047.53;5033094;28;20202;-86
2021/07/22 07:00:01;;;;;;;13.93;12.07;;;;;;;22.73;61.17;96048.69;5033752;28;20538;-86
2021/07/22 07:02:32;;;;;;;12.50;11.02;;;;;;;22.82;61.37;96047.28;5032694;28;20214;-86
2021/07/22 07:04:58;;;;;;;12.60;11.35;;;;;;;22.93;59.71;96040.31;5032315;28;20202;-86
2021/07/22 07:07:25;;;;;;;13.55;12.13;;;;;;;23.02;58.90;96036.25;5033433;28;20266;-86
2021/07/22 07:09:52;;;;;;;12.98;11.68;;;;;;;22.98;60.33;96043.81;5033987;28;20562;-84
2021/07/22 07:12:19;;;;;;;13.80;11.55;;;;;;;22.91;59.99;96040.56;5034124;28;20222;-85
2021/07/22 07:14:45;;;;;;;13.55;11.35;;;;;;;22.91;59.70;96037.16;5033509;28;20209;-84
2021/07/22 07:17:12;;;;;;;14.95;11.30;;;;;;;22.81;59.32;96035.19;5032867;28;20228;-84
2021/07/22 07:19:40;;;;;;;16.00;12.30;;;;;;;22.79;57.64;96045.13;5033028;28;20198;-85
2021/07/22 07:22:06;;;;;;;14.38;11.02;;;;;;;22.80;57.91;96036.22;5033249;28;20242;-86
2021/07/22 07:24:33;;;;;;;14.07;11.38;;;;;;;22.99;58.25;96032.28;5036565;28;20230;-86
2021/07/22 07:26:59;;;;;;;15.25;11.40;;;;;;;23.07;57.35;96034.50;5038316;28;20202;-86
2021/07/22 07:29:26;;;;;;;12.10;10.77;;;;;;;23.19;56.50;96039.63;5037627;28;20209;-86
2021/07/22 07:31:52;;;;;;;15.70;11.18;;;;;;;23.25;56.65;96033.41;5037052;28;20252;-86
2021/07/22 07:34:19;;;;;;;12.70;11.40;;;;;;;23.28;55.77;96027.66;5037203;28;20232;-86
2021/07/22 07:36:47;;;;;;;15.05;11.00;;;;;;;23.45;56.20;96026.78;5037244;28;20198;-86
2021/07/22 07:39:16;;;;;;;12.57;11.27;;;;;;;23.47;55.50;96027.34;5037154;28;20270;-86
2021/07/22 07:41:42;;;;;;;13.80;11.80;;;;;;;23.48;55.14;96031.53;5037585;28;20202;-86
2021/07/22 07:44:17;;;;;;;16.20;11.57;;;;;;;23.64;54.67;96028.88;5037767;28;20229;-86
2021/07/22 07:46:49;;;;;;;12.55;11.27;;;;;;;23.75;55.27;96022.66;5038017;28;20228;-86
2021/07/22 07:49:15;;;;;;;14.57;11.13;;;;;;;23.90;55.66;96022.00;5038176;28;20244;-86
2021/07/22 07:51:42;;;;;;;13.95;10.80;;;;;;;24.02;56.21;96027.91;5037765;28;20284;-86
2021/07/22 07:54:10;;;;;;;17.67;11.38;;;;;;;24.13;55.53;96020.09;5039036;28;20210;-86
2021/07/22 07:56:40;;;;;;;14.35;10.85;;;;;;;24.10;53.41;96024.81;5037449;28;20885;-86
2021/07/22 07:59:06;;;;;;;13.95;10.98;;;;;;;24.02;54.09;96019.22;5036066;28;20202;-86
2021/07/22 08:01:33;;;;;;;11.85;10.65;;;;;;;24.10;54.01;96022.16;5035234;28;20202;-86
2021/07/22 08:04:02;;;;;;;12.07;10.88;;;;;;;24.14;56.38;96019.03;5034871;28;20222;-86
2021/07/22 08:06:28;;;;;;;11.05;9.98;;;;;;;24.35;55.85;96024.25;5035278;28;20205;-86
2021/07/22 08:08:55;;;;;;;13.90;11.25;;;;;;;24.44;53.53;96022.72;5035133;28;20562;-86
2021/07/22 08:11:23;;;;;;;13.13;11.70;;;;;;;24.47;53.73;96021.41;5034655;28;20202;-86
2021/07/22 08:13:49;;;;;;;12.73;11.30;;;;;;;24.52;53.07;96018.81;5034474;28;20218;-86
2021/07/22 08:16:19;;;;;;;12.52;11.00;;;;;;;24.67;52.96;96024.19;5034128;28;20193;-86
2021/07/22 08:18:47;;;;;;;11.73;10.52;;;;;;;24.87;53.72;96023.50;5035450;28;20232;-86
2021/07/22 08:21:14;;;;;;;12.65;11.15;;;;;;;24.85;52.15;96025.59;5034834;28;20293;-86
2021/07/22 08:23:41;;;;;;;13.07;10.73;;;;;;;24.89;51.26;96024.03;5033543;28;20237;-86
2021/07/22 08:26:09;;;;;;;16.48;11.00;;;;;;;25.08;51.04;96027.84;5034100;28;20695;-86
2021/07/22 08:28:45;;;;;;;12.27;10.70;;;;;;;25.22;50.35;96020.25;5035048;28;20214;-87
2021/07/22 08:31:11;;;;;;;11.48;10.48;;;;;;;25.22;50.81;96022.91;5035379;28;20205;-86
2021/07/22 08:33:43;;;;;;;11.82;10.00;;;;;;;25.33;49.99;96027.19;5034493;28;20246;-86
2021/07/22 08:36:17;;;;;;;12.43;10.57;;;;;;;25.45;49.76;96027.72;5034749;28;20229;-84
2021/07/22 08:38:44;;;;;;;13.48;10.02;;;;;;;25.47;49.97;96024.84;5035211;28;20201;-86
2021/07/22 08:41:16;;;;;;;12.07;10.43;;;;;;;25.64;50.71;96014.88;5035489;28;20273;-85
2021/07/22 08:43:49;;;;;;;14.77;9.65;;;;;;;25.80;50.55;96021.78;5035698;28;20240;-85
2021/07/22 08:46:16;;;;;;;10.70;9.40;;;;;;;25.73;48.15;96021.25;5034979;28;20244;-86
2021/07/22 08:48:45;;;;;;;10.90;9.90;;;;;;;25.80;47.86;96029.69;5035070;28;20198;-84
2021/07/22 08:51:12;;;;;;;11.48;9.45;;;;;;;25.98;48.74;96024.97;5035090;28;20652;-84
2021/07/22 08:53:39;;;;;;;14.43;9.52;;;;;;;26.11;47.90;96017.31;5034229;28;20257;-85
2021/07/22 08:56:08;;;;;;;10.93;9.88;;;;;;;26.08;48.33;96023.13;5034450;28;20678;-85
2021/07/22 08:58:38;;;;;;;10.68;9.63;;;;;;;26.23;49.21;96024.19;5034435;28;20202;-87
2021/07/22 09:01:11;;;;;;;11.38;9.32;;;;;;;26.34;46.69;96021.31;5033602;28;20226;-86
2021/07/22 09:03:41;;;;;;;9.95;8.95;;;;;;;26.42;48.11;96023.41;5033811;28;20226;-86
2021/07/22 09:06:18;;;;;;;13.43;9.38;;;;;;;26.62;48.11;96017.31;5033920;28;20293;-87
2021/07/22 09:08:46;;;;;;;10.30;8.80;;;;;;;26.61;45.31;96018.38;5033915;28;20210;-86
2021/07/22 09:11:13;;;;;;;9.38;8.40;;;;;;;26.63;43.83;96016.25;5034075;28;20194;-86
2021/07/22 09:13:40;;;;;;;8.95;8.02;;;;;;;26.72;42.55;96017.31;5033868;28;20324;-87
2021/07/22 09:16:10;;;;;;;8.82;8.05;;;;;;;26.88;42.82;96011.97;5034194;28;20322;-86
2021/07/22 09:18:46;;;;;;;9.25;8.10;;;;;;;26.96;41.31;96009.59;5034006;28;20296;-85
2021/07/22 09:21:20;;;;;;;9.20;8.30;;;;;;;26.93;41.52;96009.31;5033736;28;20209;-86
2021/07/22 09:24:07;;;;;;;9.30;7.95;;;;;;;27.18;41.94;96009.25;5033784;28;20312;-86
2021/07/22 09:26:38;;;;;;;10.48;8.70;;;;;;;27.31;42.32;96008.66;5032681;28;20197;-86
2021/07/22 09:29:08;;;;;;;10.23;8.98;;;;;;;27.36;41.62;96007.84;5033122;28;20206;-86
2021/07/22 09:31:39;;;;;;;9.77;8.27;;;;;;;27.35;42.69;95998.31;5031841;28;20213;-86
2021/07/22 09:34:19;;;;;;;9.35;8.50;;;;;;;27.44;40.96;96002.78;5032164;28;20194;-86
2021/07/22 09:36:45;;;;;;;9.63;8.73;;;;;;;27.39;41.30;95999.34;5032566;28;20222;-86
2021/07/22 09:39:24;;;;;;;10.02;9.02;;;;;;;27.50;41.40;96000.91;5032631;28;20198;-86
2021/07/22 09:41:59;;;;;;;9.45;8.55;;;;;;;27.69;40.71;95996.59;5032976;28;20233;-87
2021/07/22 09:44:30;;;;;;;10.32;9.27;;;;;;;27.87;41.84;96000.44;5032623;28;20275;-86
2021/07/22 09:46:59;;;;;;;9.82;8.80;;;;;;;27.95;41.89;95993.75;5032876;28;20277;-86
2021/07/22 09:49:34;;;;;;;10.27;9.27;;;;;;;28.11;41.49;95988.03;5033733;28;20204;-85
2021/07/22 09:52:02;;;;;;;9.88;8.88;;;;;;;28.20;39.87;95985.63;5032793;28;20693;-86
2021/07/22 09:54:37;;;;;;;9.80;8.60;;;;;;;27.99;39.12;95992.91;5031875;28;20682;-86
2021/07/22 09:57:13;;;;;;;10.02;8.88;;;;;;;28.03;40.85;95985.22;5032744;28;20236;-86
2021/07/22 09:59:40;;;;;;;9.68;8.60;;;;;;;28.05;40.66;95986.53;5040798;28;20258;-86
2021/07/22 10:02:13;;;;;;;10.45;9.35;;;;;;;28.25;40.46;95979.50;5041915;28;20645;-85
2021/07/22 10:04:42;;;;;;;9.43;8.52;;;;;;;28.41;40.94;95979.09;5043835;28;20217;-86
2021/07/22 10:07:11;;;;;;;10.57;9.57;;;;;;;28.45;38.72;95980.13;5044477;28;20698;-86
2021/07/22 10:09:50;;;;;;;10.35;9.35;;;;;;;28.52;39.16;95982.41;5041698;28;20266;-86
2021/07/22 10:12:28;;;;;;;10.23;9.02;;;;;;;28.71;39.77;95975.31;5042606;28;20221;-86
2021/07/22 10:14:56;;;;;;;10.05;9.15;;;;;;;28.78;39.51;95975.00;5043662;28;20198;-85
2021/07/22 10:17:27;;;;;;;9.55;8.65;;;;;;;28.77;37.94;95984.03;5043350;28;20924;-86
2021/07/22 10:19:57;;;;;;;10.13;9.07;;;;;;;28.65;38.14;95975.69;5043618;28;20198;-85
2021/07/22 10:22:24;;;;;;;10.60;9.40;;;;;;;28.56;37.74;95970.19;5042285;28;20245;-86
2021/07/22 10:24:52;;;;;;;10.80;9.27;;;;;;;28.73;38.54;95973.19;5041569;28;20222;-86
2021/07/22 10:27:18;;;;;;;10.82;8.77;;;;;;;28.91;38.64;95976.19;5032351;28;20206;-86
2021/07/22 10:29:46;;;;;;;10.25;9.20;;;;;;;28.99;38.79;95981.69;5031180;28;20202;-86
2021/07/22 10:32:31;;;;;;;12.75;9.27;;;;;;;28.84;38.10;95977.34;5032416;28;20214;-86
2021/07/22 10:34:59;;;;;;;10.65;9.10;;;;;;;28.93;39.51;95976.72;5031333;28;20225;-86
2021/07/22 10:37:26;;;;;;;10.45;9.15;;;;;;;28.95;37.83;95975.34;5030779;28;20245;-86
2021/07/22 10:39:59;;;;;;;10.60;9.52;;;;;;;28.92;36.77;95967.97;5031080;28;20206;-86
2021/07/22 10:42:39;;;;;;;10.48;9.40;;;;;;;29.03;39.33;95972.09;5030824;28;20221;-86
2021/07/22 10:45:23;;;;;;;10.57;9.63;;;;;;;29.11;37.71;95970.66;5031191;28;20222;-86
2021/07/22 10:48:08;;;;;;;11.32;9.43;;;;;;;29.07;37.35;95964.34;5031947;28;20662;-86
2021/07/22 10:51:19;;;;;;;9.50;8.70;;;;;;;29.23;38.17;95965.75;5033634;28;20194;-86
2021/07/22 10:53:59;;;;;;;9.00;8.27;;;;;;;29.33;36.92;95959.50;4991382;28;20254;-86
2021/07/22 10:56:53;;;;;;;10.15;9.25;;;;;;;29.25;37.01;95960.16;5031026;28;20263;-86
2021/07/22 10:59:19;;;;;;;9.27;8.40;;;;;;;28.88;38.32;95959.78;5032393;28;20198;-86
2021/07/22 11:01:51;;;;;;;10.30;9.00;;;;;;;28.41;39.11;95951.81;5038255;28;20226;-85
2021/07/22 11:04:50;;;;;;;10.18;9.18;;;;;;;27.95;39.31;95956.69;5038023;28;20228;-86
2021/07/22 11:07:23;;;;;;;9.88;8.85;;;;;;;27.87;39.56;95959.94;5037607;28;20293;-86
2021/07/22 11:09:53;;;;;;;13.60;9.48;;;;;;;28.21;40.49;95952.78;5037924;28;20204;-85
2021/07/22 11:12:46;;;;;;;9.35;8.45;;;;;;;28.46;38.77;95951.75;5038819;28;20221;-86
2021/07/22 11:15:34;;;;;;;10.10;8.63;;;;;;;28.50;37.93;95956.19;5038843;28;20662;-86
2021/07/22 11:18:00;;;;;;;9.90;8.93;;;;;;;28.52;37.85;95953.28;5021836;28;20212;-86
2021/07/22 11:20:35;;;;;;;9.57;8.68;;;;;;;28.71;36.90;95950.69;5038373;28;20206;-86
2021/07/22 11:23:16;;;;;;;10.02;9.13;;;;;;;28.73;36.73;95954.63;5039023;28;20300;-85
2021/07/22 11:25:48;;;;;;;10.10;9.05;;;;;;;29.02;36.69;95949.28;5037477;28;20275;-86
2021/07/22 11:28:16;;;;;;;9.63;8.73;;;;;;;29.14;36.99;95940.91;5038734;28;20212;-86
2021/07/22 11:31:05;;;;;;;9.48;8.55;;;;;;;29.29;37.37;95947.88;5038324;28;20210;-86
2021/07/22 11:33:33;;;;;;;10.50;9.45;;;;;;;29.33;36.88;95943.56;5037952;28;20242;-86